| time (UTC) | temp C | wind direction | speed KPH | gust KPH | rain 1hr cm | rain 24hr cm | rain mn cm | humidity % | barometer mb |
| 20260906212050 | 31 | 152 | 12.9 | 25.7 | 0.00 | 0.00 | 0.00 | 49 | 941.7 |
| 20260906211023 | 31 | 152 | 16.1 | 29.0 | 0.00 | 0.00 | 0.00 | 52 | 941.7 |
| 20260906210046 | 31 | 149 | 17.7 | 33.8 | 0.00 | 0.00 | 0.00 | 52 | 941.8 |
| 20260906205100 | 31 | 152 | 14.5 | 22.5 | 0.00 | 0.00 | 0.00 | 51 | 942.0 |
| 20260906204031 | 30 | 158 | 14.5 | 25.7 | 0.00 | 0.00 | 0.00 | 50 | 942.1 |
| 20260906203025 | 30 | 151 | 16.1 | 29.0 | 0.00 | 0.00 | 0.00 | 53 | 942.4 |
| 20260906202018 | 29 | 170 | 16.1 | 35.4 | 0.00 | 0.00 | 0.00 | 55 | 942.6 |
| 20260906201041 | 28 | 151 | 20.9 | 35.4 | 0.00 | 0.00 | 0.00 | 60 | 942.9 |
| 20260906200034 | 28 | 158 | 22.5 | 33.8 | 0.00 | 0.00 | 0.00 | 61 | 942.9 |
| 20260906195026 | 28 | 155 | 19.3 | 29.0 | 0.00 | 0.00 | 0.00 | 64 | 942.8 |
| 20260906194019 | 28 | 159 | 14.5 | 24.1 | 0.00 | 0.00 | 0.00 | 64 | 943.1 |
| 20260906193042 | 27 | 144 | 24.1 | 33.8 | 0.00 | 0.00 | 0.00 | 66 | 943.3 |
| 20260906192036 | 27 | 147 | 19.3 | 25.7 | 0.00 | 0.00 | 0.00 | 67 | 943.5 |
| 20260906191027 | 26 | 148 | 22.5 | 35.4 | 0.00 | 0.00 | 0.00 | 70 | 943.4 |
| 20260906190021 | 27 | 134 | 22.5 | 40.2 | 0.00 | 0.00 | 0.00 | 67 | 943.6 |
| 20260906185044 | 29 | 116 | 6.4 | 16.1 | 0.00 | 0.00 | 0.00 | 63 | 943.5 |
| 20260906184037 | 29 | 139 | 6.4 | 19.3 | 0.00 | 0.00 | 0.00 | 64 | 943.3 |
| 20260906183031 | 29 | 122 | 6.4 | 16.1 | 0.00 | 0.00 | 0.00 | 64 | 943.2 |
| 20260906182022 | 28 | 86 | 9.7 | 22.5 | 0.00 | 0.00 | 0.00 | 65 | 943.6 |
| 20260906181047 | 28 | 104 | 8.0 | 19.3 | 0.00 | 0.00 | 0.00 | 64 | 943.9 |
| 20260906180038 | 28 | 77 | 9.7 | 19.3 | 0.00 | 0.00 | 0.00 | 64 | 943.9 |
| 20260906175032 | 28 | 82 | 12.9 | 25.7 | 0.00 | 0.00 | 0.00 | 65 | 944.1 |
| 20260906174023 | 27 | 70 | 9.7 | 19.3 | 0.00 | 0.00 | 0.00 | 65 | 944.1 |
| 20260906173048 | 27 | 60 | 8.0 | 16.1 | 0.00 | 0.00 | 0.00 | 66 | 944.1 |
| 20260906172039 | 27 | 67 | 8.0 | 19.3 | 0.00 | 0.00 | 0.00 | 67 | 944.4 |
| 20260906171033 | 27 | 42 | 14.5 | 24.1 | 0.00 | 0.00 | 0.00 | 68 | 944.6 |
| 20260906170046 | 27 | 42 | 11.3 | 17.7 | 0.00 | 0.00 | 0.00 | 69 | 944.6 |
| 20260906165038 | 26 | 62 | 9.7 | 19.3 | 0.00 | 0.00 | 0.00 | 72 | 944.4 |
| 20260906164103 | 26 | 49 | 8.0 | 16.1 | 0.00 | 0.00 | 0.00 | 74 | 944.6 |
| 20260906163034 | 26 | 358 | 8.0 | 12.9 | 0.00 | 0.00 | 0.00 | 77 | 944.5 |
| 20260906162027 | 24 | 7 | 9.7 | 16.1 | 0.00 | 0.00 | 0.00 | 80 | 944.6 |
| 20260906161039 | 23 | 357 | 14.5 | 25.7 | 0.00 | 0.00 | 0.00 | 80 | 944.6 |
| 20260906160104 | 25 | 293 | 9.7 | 19.3 | 0.00 | 0.00 | 0.00 | 78 | 944.6 |
| 20260906155035 | 25 | 288 | 11.3 | 17.7 | 0.00 | 0.00 | 0.00 | 80 | 943.9 |
| 20260906154049 | 24 | 274 | 6.4 | 8.0 | 0.00 | 0.00 | 0.00 | 81 | 943.6 |
| 20260906153020 | 24 | 214 | 4.8 | 8.0 | 0.00 | 0.00 | 0.00 | 81 | 943.6 |
| 20260906152045 | 25 | 160 | 1.6 | 4.8 | 0.00 | 0.00 | 0.00 | 80 | 943.7 |
| 20260906151039 | 25 | 148 | 1.6 | 4.8 | 0.00 | 0.00 | 0.00 | 78 | 943.8 |
| 20260906150030 | 23 | 146 | 1.6 | 4.8 | 0.00 | 0.00 | 0.00 | 82 | 943.7 |
| 20260906145023 | 23 | 146 | 3.2 | 4.8 | 0.00 | 0.00 | 0.00 | 81 | 943.9 |
| 20260906144047 | 23 | 145 | 0.0 | 1.6 | 0.00 | 0.00 | 0.00 | 82 | 944.0 |
| 20260906143040 | 22 | 146 | 1.6 | 4.8 | 0.00 | 0.00 | 0.00 | 84 | 944.1 |
| 20260906142051 | 22 | 146 | 1.6 | 6.4 | 0.00 | 0.00 | 0.00 | 86 | 943.9 |
| 20260906141025 | 21 | 148 | 3.2 | 4.8 | 0.00 | 0.00 | 0.00 | 87 | 943.9 |
| 20260906140016 | 21 | 146 | 3.2 | 6.4 | 0.00 | 0.00 | 0.00 | 87 | 943.7 |
| 20260906135041 | 20 | 151 | 1.6 | 4.8 | 0.00 | 0.00 | 0.00 | 89 | 943.7 |
| 20260906134053 | 20 | 171 | 0.0 | 1.6 | 0.00 | 0.00 | 0.00 | 90 | 944.0 |
| 20260906133026 | 20 | 0.0 | 0.0 | 0.00 | 0.00 | 0.00 | 91 | 944.0 | |
| 20260906132019 | 20 | 0.0 | 0.0 | 0.00 | 0.00 | 0.00 | 91 | 944.0 | |
| 20260906131042 | 19 | 0.0 | 0.0 | 0.00 | 0.00 | 0.00 | 92 | 943.8 | |
| 20260906130036 | 19 | 0.0 | 0.0 | 0.00 | 0.00 | 0.00 | 92 | 943.8 | |
| 20260906125027 | 19 | 0.0 | 0.0 | 0.00 | 0.00 | 0.00 | 92 | 943.8 | |
| 20260906124020 | 19 | 0.0 | 0.0 | 0.00 | 0.00 | 0.00 | 92 | 943.9 | |
| 20260906123044 | 19 | 0.0 | 0.0 | 0.00 | 0.00 | 0.00 | 92 | 943.7 | |
| 20260906122037 | 19 | 0.0 | 0.0 | 0.00 | 0.00 | 0.00 | 92 | 943.6 | |
| 20260906121028 | 19 | 135 | 0.0 | 1.6 | 0.00 | 0.00 | 0.00 | 91 | 943.4 |
| 20260906120022 | 19 | 124 | 3.2 | 8.0 | 0.00 | 0.00 | 0.00 | 91 | 943.4 |
| 20260906115045 | 19 | 113 | 1.6 | 11.3 | 0.00 | 0.00 | 0.00 | 91 | 943.6 |
| 20260906114039 | 18 | 127 | 0.0 | 6.4 | 0.00 | 0.00 | 0.00 | 90 | 943.8 |
| 20260906113032 | 18 | 119 | 0.0 | 8.0 | 0.00 | 0.00 | 0.00 | 90 | 944.1 |
| 20260906112023 | 19 | 146 | 1.6 | 6.4 | 0.00 | 0.00 | 0.00 | 89 | 944.1 |
| 20260906111108 | 18 | 146 | 0.0 | 4.8 | 0.00 | 0.00 | 0.00 | 89 | 943.9 |
| 20260906110040 | 19 | 124 | 1.6 | 4.8 | 0.00 | 0.00 | 0.00 | 88 | 943.6 |
| 20260906105033 | 19 | 126 | 1.6 | 4.8 | 0.00 | 0.00 | 0.00 | 88 | 943.7 |
| 20260906104024 | 19 | 129 | 1.6 | 6.4 | 0.00 | 0.00 | 0.00 | 88 | 943.8 |
| 20260906103018 | 19 | 130 | 1.6 | 4.8 | 0.00 | 0.00 | 0.00 | 88 | 943.7 |
| 20260906102041 | 19 | 117 | 3.2 | 8.0 | 0.00 | 0.00 | 0.00 | 88 | 943.8 |
| 20260906101034 | 19 | 126 | 3.2 | 11.3 | 0.00 | 0.00 | 0.00 | 87 | 943.6 |
| 20260906100026 | 19 | 134 | 1.6 | 4.8 | 0.00 | 0.00 | 0.00 | 87 | 943.5 |
| 20260906095019 | 18 | 133 | 1.6 | 6.4 | 0.00 | 0.00 | 0.00 | 86 | 943.6 |
| 20260906094104 | 19 | 126 | 1.6 | 4.8 | 0.00 | 0.00 | 0.00 | 86 | 943.6 |
| 20260906093035 | 19 | 121 | 3.2 | 8.0 | 0.00 | 0.00 | 0.00 | 86 | 943.7 |
| 20260906092029 | 19 | 117 | 3.2 | 6.4 | 0.00 | 0.00 | 0.00 | 86 | 943.5 |
| 20260906091020 | 19 | 132 | 1.6 | 4.8 | 0.00 | 0.00 | 0.00 | 86 | 943.6 |
| 20260906090045 | 19 | 119 | 1.6 | 6.4 | 0.00 | 0.00 | 0.00 | 86 | 943.7 |
| 20260906085036 | 19 | 138 | 0.0 | 4.8 | 0.00 | 0.00 | 0.00 | 85 | 943.7 |
| 20260906084030 | 19 | 145 | 1.6 | 6.4 | 0.00 | 0.00 | 0.00 | 85 | 943.8 |
| 20260906083021 | 19 | 144 | 3.2 | 6.4 | 0.00 | 0.00 | 0.00 | 85 | 943.6 |
| 20260906082047 | 19 | 139 | 1.6 | 4.8 | 0.00 | 0.00 | 0.00 | 84 | 943.5 |
| 20260906081040 | 20 | 130 | 0.0 | 4.8 | 0.00 | 0.00 | 0.00 | 84 | 943.5 |
| 20260906080031 | 20 | 120 | 1.6 | 6.4 | 0.00 | 0.00 | 0.00 | 84 | 943.3 |
| 20260906075024 | 20 | 125 | 1.6 | 4.8 | 0.00 | 0.00 | 0.00 | 83 | 943.4 |
| 20260906074056 | 20 | 118 | 1.6 | 8.0 | 0.00 | 0.00 | 0.00 | 83 | 943.3 |
| 20260906073041 | 20 | 129 | 1.6 | 4.8 | 0.00 | 0.00 | 0.00 | 83 | 943.4 |
| 20260906072033 | 20 | 0.0 | 0.0 | 0.00 | 0.00 | 0.00 | 82 | 943.5 | |
| 20260906071046 | 20 | 0.0 | 0.0 | 0.00 | 0.00 | 0.00 | 82 | 943.4 | |
| 20260906070017 | 20 | 111 | 1.6 | 8.0 | 0.00 | 0.00 | 0.00 | 82 | 943.5 |
| 20260906065043 | 20 | 129 | 3.2 | 6.4 | 0.00 | 0.00 | 0.00 | 81 | 943.6 |
| 20260906064034 | 20 | 133 | 1.6 | 6.4 | 0.00 | 0.00 | 0.00 | 81 | 943.6 |
| 20260906063047 | 20 | 120 | 1.6 | 8.0 | 0.00 | 0.00 | 0.00 | 80 | 943.4 |
| 20260906062020 | 21 | 129 | 1.6 | 4.8 | 0.00 | 0.00 | 0.00 | 80 | 943.6 |
| 20260906061044 | 21 | 133 | 0.0 | 4.8 | 0.00 | 0.00 | 0.00 | 79 | 943.6 |
| 20260906060057 | 21 | 128 | 1.6 | 4.8 | 0.00 | 0.00 | 0.00 | 78 | 943.5 |
| 20260906055029 | 21 | 106 | 3.2 | 6.4 | 0.00 | 0.00 | 0.00 | 77 | 943.6 |
| 20260906054142 | 22 | 124 | 0.0 | 4.8 | 0.00 | 0.00 | 0.00 | 77 | 943.5 |
| 20260906053045 | 22 | 136 | 0.0 | 1.6 | 0.00 | 0.00 | 0.00 | 76 | 943.3 |
| 20260906052038 | 22 | 119 | 3.2 | 6.4 | 0.00 | 0.00 | 0.00 | 75 | 943.5 |
| 20260906051029 | 22 | 112 | 3.2 | 8.0 | 0.00 | 0.00 | 0.00 | 75 | 943.4 |
| 20260906050023 | 22 | 112 | 0.0 | 4.8 | 0.00 | 0.00 | 0.00 | 74 | 943.2 |
| 20260906045048 | 22 | 138 | 1.6 | 1.6 | 0.00 | 0.00 | 0.00 | 76 | 943.2 |
| 20260906044039 | 22 | 140 | 0.0 | 1.6 | 0.00 | 0.00 | 0.00 | 76 | 943.2 |
| 20260906043053 | 22 | 142 | 1.6 | 6.4 | 0.00 | 0.00 | 0.00 | 75 | 943.0 |
| 20260906042024 | 23 | 149 | 3.2 | 6.4 | 0.00 | 0.00 | 0.00 | 73 | 943.1 |
| 20260906041017 | 23 | 132 | 0.0 | 4.8 | 0.00 | 0.00 | 0.00 | 74 | 943.0 |
| 20260906040041 | 23 | 131 | 1.6 | 6.4 | 0.00 | 0.00 | 0.00 | 73 | 943.0 |
| 20260906035034 | 23 | 144 | 4.8 | 11.3 | 0.00 | 0.00 | 0.00 | 73 | 943.0 |
| 20260906034027 | 23 | 157 | 3.2 | 8.0 | 0.00 | 0.00 | 0.00 | 71 | 943.0 |
| 20260906033038 | 23 | 153 | 4.8 | 11.3 | 0.00 | 0.00 | 0.00 | 71 | 942.6 |
| 20260906032044 | 23 | 152 | 8.0 | 12.9 | 0.00 | 0.00 | 0.00 | 69 | 942.6 |
| 20260906031035 | 24 | 153 | 6.4 | 11.3 | 0.00 | 0.00 | 0.00 | 67 | 942.6 |
| 20260906030028 | 24 | 143 | 3.2 | 8.0 | 0.00 | 0.00 | 0.00 | 68 | 942.4 |
| 20260906025020 | 25 | 149 | 6.4 | 8.0 | 0.00 | 0.00 | 0.00 | 66 | 942.4 |
| 20260906024045 | 25 | 155 | 6.4 | 11.3 | 0.00 | 0.00 | 0.00 | 65 | 942.5 |
| 20260906023036 | 25 | 146 | 9.7 | 16.1 | 0.00 | 0.00 | 0.00 | 65 | 942.5 |
| 20260906022030 | 25 | 144 | 9.7 | 12.9 | 0.00 | 0.00 | 0.00 | 65 | 942.4 |
| 20260906021021 | 25 | 139 | 4.8 | 8.0 | 0.00 | 0.00 | 0.00 | 68 | 942.2 |
| 20260906020046 | 26 | 142 | 4.8 | 8.0 | 0.00 | 0.00 | 0.00 | 67 | 941.9 |
| 20260906015040 | 26 | 145 | 1.6 | 4.8 | 0.00 | 0.00 | 0.00 | 66 | 941.8 |
| 20260906014030 | 26 | 0.0 | 0.0 | 0.00 | 0.00 | 0.00 | 68 | 941.7 | |
| 20260906013024 | 26 | 145 | 0.0 | 1.6 | 0.00 | 0.00 | 0.00 | 67 | 941.5 |
| 20260906012017 | 27 | 146 | 0.0 | 1.6 | 0.00 | 0.00 | 0.00 | 66 | 941.6 |
| 20260906011040 | 27 | 145 | 1.6 | 4.8 | 0.00 | 0.00 | 0.00 | 65 | 941.7 |
| 20260906010034 | 27 | 146 | 4.8 | 8.0 | 0.00 | 0.00 | 0.00 | 65 | 941.7 |
| 20260906005025 | 28 | 146 | 4.8 | 6.4 | 0.00 | 0.00 | 0.00 | 63 | 941.7 |
| 20260906004018 | 28 | 151 | 6.4 | 11.3 | 0.00 | 0.00 | 0.00 | 61 | 941.8 |
| 20260906003041 | 29 | 138 | 9.7 | 17.7 | 0.00 | 0.00 | 0.00 | 59 | 941.9 |
| 20260906002054 | 30 | 145 | 14.5 | 22.5 | 0.00 | 0.00 | 0.00 | 54 | 941.9 |
| 20260906001028 | 30 | 145 | 12.9 | 17.7 | 0.00 | 0.00 | 0.00 | 49 | 941.9 |
| 20260906000019 | 31 | 157 | 9.7 | 16.1 | 0.00 | 0.00 | 0.00 | 49 | 941.7 |
| 20260905235105 | 31 | 158 | 11.3 | 22.5 | 0.00 | 0.00 | 0.00 | 45 | 941.7 |
| 20260905234036 | 31 | 148 | 17.7 | 25.7 | 0.00 | 0.00 | 0.00 | 43 | 941.9 |
| 20260905233029 | 34 | 167 | 8.0 | 16.1 | 0.00 | 0.00 | 0.00 | 43 | 942.0 |
| 20260905232020 | 34 | 175 | 8.0 | 16.1 | 0.00 | 0.00 | 0.00 | 42 | 941.9 |
| 20260905231046 | 34 | 180 | 8.0 | 12.9 | 0.00 | 0.00 | 0.00 | 42 | 941.7 |
| 20260905230037 | 34 | 172 | 4.8 | 11.3 | 0.00 | 0.00 | 0.00 | 42 | 941.8 |
| 20260905225030 | 34 | 178 | 6.4 | 12.9 | 0.00 | 0.00 | 0.00 | 42 | 941.7 |
| 20260905224024 | 34 | 172 | 6.4 | 11.3 | 0.00 | 0.00 | 0.00 | 42 | 941.4 |
| 20260905223047 | 34 | 179 | 3.2 | 8.0 | 0.00 | 0.00 | 0.00 | 43 | 941.3 |
| 20260905222100 | 34 | 189 | 4.8 | 6.4 | 0.00 | 0.00 | 0.00 | 43 | 941.3 |
| 20260905221031 | 35 | 198 | 3.2 | 11.3 | 0.00 | 0.00 | 0.00 | 41 | 941.3 |
| 20260905220044 | 35 | 176 | 6.4 | 16.1 | 0.00 | 0.00 | 0.00 | 42 | 941.6 |
| 20260905215016 | 35 | 176 | 6.4 | 11.3 | 0.00 | 0.00 | 0.00 | 43 | 941.7 |
| 20260905214041 | 35 | 183 | 6.4 | 16.1 | 0.00 | 0.00 | 0.00 | 43 | 941.9 |
| 20260905213032 | 35 | 173 | 6.4 | 11.3 | 0.00 | 0.00 | 0.00 | 43 | 942.1 |